Time;durP1;ratioP1;P1;durP2;ratioP2;P2;SDS_P1;SDS_P2;PMS_P1;PMS_P2;Temp;Humidity;BMP_temperature;BMP_pressure;BME280_temperature;BME280_humidity;BME280_pressure;Samples;Min_cycle;Max_cycle;Signal;HPM_P1;HPM_P2
2023/06/23 00:01:46;;;;;;;16.90;15.30;;;;;;;;;;4940361;28;20445;-71
2023/06/23 00:04:15;;;;;;;15.38;14.07;;;;;;;;;;4941921;28;20448;-70
2023/06/23 00:06:42;;;;;;;14.85;13.60;;;;;;;;;;4985657;28;20432;-71
2023/06/23 00:09:13;;;;;;;13.65;12.45;;;;;;;;;;4962300;28;20459;-71
2023/06/23 00:11:41;;;;;;;13.57;12.48;;;;;;;;;;4968953;28;20443;-72
2023/06/23 00:14:08;;;;;;;13.00;11.80;;;;;;;;;;4967961;28;20440;-72
2023/06/23 00:16:36;;;;;;;12.88;11.77;;;;;;;;;;4962513;28;20494;-71
2023/06/23 00:19:03;;;;;;;12.05;11.05;;;;;;;;;;4976754;28;20508;-72
2023/06/23 00:21:32;;;;;;;12.10;11.00;;;;;;;;;;4976496;28;20462;-72
2023/06/23 00:24:00;;;;;;;12.48;11.27;;;;;;;;;;4954787;28;20420;-72
2023/06/23 00:26:27;;;;;;;12.07;11.07;;;;;;;;;;4945586;28;20482;-71
2023/06/23 00:28:54;;;;;;;11.18;10.18;;;;;;;;;;4941394;28;21248;-70
2023/06/23 00:31:21;;;;;;;11.38;10.38;;;;;;;;;;4941211;28;20441;-72
2023/06/23 00:33:48;;;;;;;11.80;10.70;;;;;;;;;;4944598;28;20429;-71
2023/06/23 00:36:15;;;;;;;10.30;9.50;;;;;;;;;;4939750;28;20451;-71
2023/06/23 00:38:45;;;;;;;9.35;8.55;;;;;;;;;;4941544;28;20434;-71
2023/06/23 00:41:12;;;;;;;11.77;10.77;;;;;;;;;;4938790;28;20528;-73
2023/06/23 00:43:39;;;;;;;10.50;9.60;;;;;;;;;;4939676;28;20819;-72
2023/06/23 00:46:09;;;;;;;11.57;10.52;;;;;;;;;;4938245;28;20451;-71
2023/06/23 00:48:37;;;;;;;9.30;8.50;;;;;;;;;;4940633;28;20420;-69
2023/06/23 00:51:04;;;;;;;11.68;10.57;;;;;;;;;;4937871;28;20435;-71
2023/06/23 00:53:31;;;;;;;10.77;9.88;;;;;;;;;;4939767;28;20447;-71
2023/06/23 00:56:00;;;;;;;11.40;10.30;;;;;;;;;;4940527;28;20445;-70
2023/06/23 00:58:29;;;;;;;11.52;10.45;;;;;;;;;;4956356;28;20941;-73
2023/06/23 01:00:56;;;;;;;11.10;10.20;;;;;;;;;;4972863;28;20453;-70
2023/06/23 01:03:23;;;;;;;11.55;10.35;;;;;;;;;;4939885;28;20438;-76
2023/06/23 01:05:51;;;;;;;11.07;10.07;;;;;;;;;;4939242;28;20444;-75
2023/06/23 01:08:27;;;;;;;10.52;9.52;;;;;;;;;;4944697;28;20435;-76
2023/06/23 01:10:57;;;;;;;10.85;9.75;;;;;;;;;;4944024;28;20432;-74
2023/06/23 01:13:30;;;;;;;11.50;10.50;;;;;;;;;;4939140;28;20446;-76
2023/06/23 01:15:59;;;;;;;10.43;9.45;;;;;;;;;;4940416;28;20448;-75
2023/06/23 01:18:30;;;;;;;10.40;9.30;;;;;;;;;;4972667;28;20443;-75
2023/06/23 01:21:02;;;;;;;10.40;9.50;;;;;;;;;;4945636;28;20440;-75
2023/06/23 01:23:47;;;;;;;9.60;8.70;;;;;;;;;;4944664;28;20427;-75
2023/06/23 01:26:23;;;;;;;9.40;8.50;;;;;;;;;;4940386;28;20447;-74
2023/06/23 01:28:53;;;;;;;9.13;8.23;;;;;;;;;;4962773;28;20419;-74
2023/06/23 01:31:22;;;;;;;9.45;8.43;;;;;;;;;;4935063;28;20440;-72
2023/06/23 01:33:50;;;;;;;8.98;8.07;;;;;;;;;;4937784;28;20432;-75
2023/06/23 01:36:22;;;;;;;8.50;7.70;;;;;;;;;;4937675;28;20422;-75
2023/06/23 01:38:52;;;;;;;8.50;7.70;;;;;;;;;;4936757;28;20969;-76
2023/06/23 01:41:23;;;;;;;8.02;7.25;;;;;;;;;;4936621;28;21280;-77
2023/06/23 01:43:53;;;;;;;7.70;7.00;;;;;;;;;;4937700;28;21017;-74
2023/06/23 01:46:25;;;;;;;8.13;6.68;;;;;;;;;;4936247;28;20981;-75
2023/06/23 01:48:54;;;;;;;8.10;7.30;;;;;;;;;;4938965;28;20997;-75
2023/06/23 01:51:22;;;;;;;7.45;6.75;;;;;;;;;;4937588;28;20957;-75
2023/06/23 01:53:50;;;;;;;7.30;6.60;;;;;;;;;;4936456;28;20443;-76
2023/06/23 01:56:17;;;;;;;6.93;6.22;;;;;;;;;;4987586;23;20449;-67
2023/06/23 01:58:45;;;;;;;7.32;6.63;;;;;;;;;;4982304;28;20591;-68
2023/06/23 02:01:12;;;;;;;6.75;5.88;;;;;;;;;;4972297;28;20438;-67
2023/06/23 02:03:41;;;;;;;6.38;5.78;;;;;;;;;;4982151;28;20423;-67
2023/06/23 02:06:08;;;;;;;6.85;5.40;;;;;;;;;;4940288;28;20451;-67
2023/06/23 02:08:36;;;;;;;6.70;6.00;;;;;;;;;;4937737;28;20435;-67
2023/06/23 02:11:03;;;;;;;6.88;5.40;;;;;;;;;;4936969;28;20434;-68
2023/06/23 02:13:31;;;;;;;9.15;5.43;;;;;;;;;;4939949;28;20686;-66
2023/06/23 02:15:59;;;;;;;5.53;5.03;;;;;;;;;;4938982;28;20444;-66
2023/06/23 02:18:27;;;;;;;7.40;5.50;;;;;;;;;;4936068;28;20431;-68
2023/06/23 02:20:56;;;;;;;5.85;5.25;;;;;;;;;;4936539;28;20451;-68
2023/06/23 02:23:24;;;;;;;6.00;5.50;;;;;;;;;;4944364;28;21062;-68
2023/06/23 02:25:51;;;;;;;6.75;5.38;;;;;;;;;;4939288;28;20776;-68
2023/06/23 02:28:19;;;;;;;7.50;5.30;;;;;;;;;;4939508;28;20430;-68
2023/06/23 02:30:46;;;;;;;6.65;5.13;;;;;;;;;;4932287;28;20440;-68
2023/06/23 02:33:13;;;;;;;6.88;6.03;;;;;;;;;;4997065;28;20882;-68
2023/06/23 02:35:40;;;;;;;6.13;5.50;;;;;;;;;;4988815;28;20788;-67
2023/06/23 02:38:10;;;;;;;6.20;5.60;;;;;;;;;;4987074;28;20439;-67
2023/06/23 02:40:40;;;;;;;6.20;5.50;;;;;;;;;;4953590;28;20449;-67
2023/06/23 02:43:11;;;;;;;6.28;5.65;;;;;;;;;;4975243;28;20468;-67
2023/06/23 02:45:40;;;;;;;7.72;5.43;;;;;;;;;;4951740;28;20492;-67
2023/06/23 02:48:10;;;;;;;6.20;5.60;;;;;;;;;;4959697;28;20432;-68
2023/06/23 02:50:38;;;;;;;6.28;5.60;;;;;;;;;;4970280;28;20566;-67
2023/06/23 02:53:06;;;;;;;6.30;5.70;;;;;;;;;;4970330;28;20447;-67
2023/06/23 02:55:36;;;;;;;6.57;5.88;;;;;;;;;;5016926;28;20427;-66
2023/06/23 02:58:06;;;;;;;6.80;6.10;;;;;;;;;;5016245;28;20455;-67
2023/06/23 03:00:34;;;;;;;6.10;5.32;;;;;;;;;;4985690;28;20428;-67
2023/06/23 03:03:02;;;;;;;7.53;6.50;;;;;;;;;;4981241;28;20420;-65
2023/06/23 03:05:30;;;;;;;7.22;6.53;;;;;;;;;;4967048;28;20427;-65
2023/06/23 03:07:57;;;;;;;7.40;6.70;;;;;;;;;;4988515;28;20448;-64
2023/06/23 03:10:24;;;;;;;7.82;6.93;;;;;;;;;;4994643;28;20722;-65
2023/06/23 03:12:52;;;;;;;7.68;6.80;;;;;;;;;;5032400;28;20886;-65
2023/06/23 03:15:19;;;;;;;7.20;6.50;;;;;;;;;;4965145;28;20431;-66
2023/06/23 03:17:48;;;;;;;7.72;6.93;;;;;;;;;;4998994;28;20463;-65
2023/06/23 03:20:18;;;;;;;7.90;7.10;;;;;;;;;;4996397;28;20440;-65
2023/06/23 03:22:46;;;;;;;7.60;6.80;;;;;;;;;;4995808;28;20448;-67
2023/06/23 03:25:16;;;;;;;9.05;8.18;;;;;;;;;;5009280;28;20823;-66
2023/06/23 03:27:44;;;;;;;8.02;7.25;;;;;;;;;;5047458;28;20438;-65
2023/06/23 03:30:15;;;;;;;8.77;7.80;;;;;;;;;;4969154;28;20900;-65
2023/06/23 03:32:44;;;;;;;9.10;8.13;;;;;;;;;;4964829;28;20451;-66
2023/06/23 03:35:14;;;;;;;9.82;8.50;;;;;;;;;;4975488;28;20446;-66
2023/06/23 03:37:43;;;;;;;10.88;8.40;;;;;;;;;;4961691;28;20432;-65
2023/06/23 03:40:13;;;;;;;9.50;8.60;;;;;;;;;;5022471;28;20487;-64
2023/06/23 03:42:42;;;;;;;9.80;8.18;;;;;;;;;;4957446;28;20440;-65
2023/06/23 03:45:10;;;;;;;9.90;8.90;;;;;;;;;;4981275;28;20445;-66
2023/06/23 03:47:40;;;;;;;11.70;9.30;;;;;;;;;;5029161;28;20431;-66
2023/06/23 03:50:10;;;;;;;9.95;8.98;;;;;;;;;;5003083;28;20939;-66
2023/06/23 03:52:38;;;;;;;9.98;8.98;;;;;;;;;;4963752;28;20938;-69
2023/06/23 03:55:06;;;;;;;9.00;8.20;;;;;;;;;;5008258;28;20428;-66
2023/06/23 03:57:34;;;;;;;10.38;9.07;;;;;;;;;;5013240;28;20431;-68
2023/06/23 04:00:03;;;;;;;10.32;9.23;;;;;;;;;;4992092;28;20896;-66
2023/06/23 04:02:30;;;;;;;10.90;9.80;;;;;;;;;;5000851;28;20436;-67
2023/06/23 04:05:01;;;;;;;10.27;9.27;;;;;;;;;;5036511;28;20412;-68
2023/06/23 04:07:28;;;;;;;11.40;10.30;;;;;;;;;;4979553;28;20439;-67
2023/06/23 04:09:57;;;;;;;10.90;9.80;;;;;;;;;;5023703;28;20442;-67
2023/06/23 04:12:25;;;;;;;10.18;9.27;;;;;;;;;;5013140;28;20430;-66
2023/06/23 04:14:53;;;;;;;10.73;9.73;;;;;;;;;;5021274;28;20427;-65
2023/06/23 04:17:22;;;;;;;11.07;9.98;;;;;;;;;;5010709;28;20449;-66
2023/06/23 04:19:51;;;;;;;11.57;10.33;;;;;;;;;;5021089;28;20431;-67
2023/06/23 04:22:21;;;;;;;11.18;10.07;;;;;;;;;;4993365;28;20438;-66
2023/06/23 04:24:48;;;;;;;11.80;10.48;;;;;;;;;;5001791;28;20416;-67
2023/06/23 04:27:17;;;;;;;12.10;10.90;;;;;;;;;;5019387;28;20441;-66
2023/06/23 04:29:46;;;;;;;11.77;10.57;;;;;;;;;;5015432;28;20431;-67
2023/06/23 04:32:14;;;;;;;13.65;11.38;;;;;;;;;;4984700;28;20443;-66
2023/06/23 04:34:42;;;;;;;12.88;11.65;;;;;;;;;;5003409;28;20450;-67
2023/06/23 04:37:11;;;;;;;12.70;9.93;;;;;;;;;;5011355;28;20470;-67
2023/06/23 04:39:44;;;;;;;13.10;11.80;;;;;;;;;;5005239;28;20906;-67
2023/06/23 04:42:13;;;;;;;12.32;11.23;;;;;;;;;;5001245;28;20956;-67
2023/06/23 04:44:44;;;;;;;12.50;11.30;;;;;;;;;;4965821;28;20743;-65
2023/06/23 04:47:12;;;;;;;12.35;11.25;;;;;;;;;;5012912;28;20434;-67
2023/06/23 04:49:41;;;;;;;12.67;11.37;;;;;;;;;;4978228;28;20510;-68
2023/06/23 04:52:08;;;;;;;13.45;12.15;;;;;;;;;;4999895;28;20443;-67
2023/06/23 04:54:41;;;;;;;13.38;12.07;;;;;;;;;;4962803;28;20441;-66
2023/06/23 04:57:11;;;;;;;12.80;11.60;;;;;;;;;;5008875;28;20473;-65
2023/06/23 04:59:40;;;;;;;13.60;12.30;;;;;;;;;;4995264;28;20423;-67
2023/06/23 05:02:07;;;;;;;13.77;12.37;;;;;;;;;;5020207;28;20430;-69
2023/06/23 05:04:36;;;;;;;14.23;12.93;;;;;;;;;;4997503;28;20424;-66
2023/06/23 05:07:03;;;;;;;13.30;12.00;;;;;;;;;;5022596;28;20431;-67
2023/06/23 05:09:31;;;;;;;12.45;11.43;;;;;;;;;;4959649;28;20443;-67
2023/06/23 05:12:00;;;;;;;14.98;13.45;;;;;;;;;;4971087;28;20436;-67
2023/06/23 05:14:29;;;;;;;13.40;12.00;;;;;;;;;;5015902;28;20424;-66
2023/06/23 05:16:58;;;;;;;14.30;12.75;;;;;;;;;;5012106;28;20850;-67
2023/06/23 05:19:26;;;;;;;12.73;11.52;;;;;;;;;;4982686;28;20455;-66
2023/06/23 05:21:55;;;;;;;11.15;10.15;;;;;;;;;;5020168;28;20944;-67
2023/06/23 05:24:25;;;;;;;12.75;11.55;;;;;;;;;;4962680;28;20424;-65
2023/06/23 05:26:53;;;;;;;12.60;11.30;;;;;;;;;;5026195;28;20423;-65
2023/06/23 05:29:22;;;;;;;12.52;11.27;;;;;;;;;;4986241;28;20438;-65
2023/06/23 05:31:52;;;;;;;12.20;11.00;;;;;;;;;;4989655;28;20434;-65
2023/06/23 05:34:20;;;;;;;12.60;11.40;;;;;;;;;;4989619;28;21028;-67
2023/06/23 05:36:47;;;;;;;12.50;11.30;;;;;;;;;;4986039;28;20737;-66
2023/06/23 05:39:16;;;;;;;12.80;11.60;;;;;;;;;;5032967;28;20893;-65
2023/06/23 05:41:43;;;;;;;11.90;10.80;;;;;;;;;;5013160;28;20443;-66
2023/06/23 05:44:10;;;;;;;12.23;10.93;;;;;;;;;;5007425;28;20436;-65
2023/06/23 05:46:39;;;;;;;12.57;11.48;;;;;;;;;;4984998;28;20450;-65
2023/06/23 05:49:10;;;;;;;12.80;11.45;;;;;;;;;;4973299;28;20867;-64
2023/06/23 05:51:37;;;;;;;13.20;11.90;;;;;;;;;;4993230;28;20424;-65
2023/06/23 05:54:07;;;;;;;11.95;10.85;;;;;;;;;;4967231;28;20423;-65
2023/06/23 05:56:37;;;;;;;13.18;11.88;;;;;;;;;;4980943;28;20475;-65
2023/06/23 05:59:08;;;;;;;13.43;12.23;;;;;;;;;;5015007;28;20774;-65
2023/06/23 06:01:40;;;;;;;14.05;12.85;;;;;;;;;;4986993;28;20430;-64
2023/06/23 06:04:10;;;;;;;12.00;10.90;;;;;;;;;;5003313;28;20455;-65
2023/06/23 06:06:38;;;;;;;13.80;12.50;;;;;;;;;;5018298;28;20898;-65
2023/06/23 06:09:06;;;;;;;13.00;11.80;;;;;;;;;;4966775;28;20428;-64
2023/06/23 06:11:34;;;;;;;13.75;12.55;;;;;;;;;;4985896;28;20428;-66
2023/06/23 06:14:01;;;;;;;12.60;11.50;;;;;;;;;;5043695;28;20508;-65
2023/06/23 06:16:29;;;;;;;12.75;11.45;;;;;;;;;;4985447;28;20437;-66
2023/06/23 06:18:57;;;;;;;13.00;11.80;;;;;;;;;;4990836;28;20448;-65
2023/06/23 06:21:26;;;;;;;13.65;12.45;;;;;;;;;;5006696;28;20451;-65
2023/06/23 06:23:54;;;;;;;12.88;11.57;;;;;;;;;;4999928;28;20529;-65
2023/06/23 06:26:21;;;;;;;13.25;12.02;;;;;;;;;;4973313;28;20423;-65
2023/06/23 06:28:51;;;;;;;11.98;10.98;;;;;;;;;;4961287;28;20614;-65
2023/06/23 06:31:18;;;;;;;12.93;11.52;;;;;;;;;;4959758;28;20479;-65
2023/06/23 06:33:46;;;;;;;13.55;12.25;;;;;;;;;;4988246;28;20427;-65
2023/06/23 06:36:14;;;;;;;12.32;11.20;;;;;;;;;;5035747;28;20924;-65
2023/06/23 06:38:44;;;;;;;14.40;13.10;;;;;;;;;;4954806;28;20438;-65
2023/06/23 06:41:11;;;;;;;14.15;12.93;;;;;;;;;;4965461;28;20428;-65
2023/06/23 06:43:38;;;;;;;14.50;13.10;;;;;;;;;;4959251;28;20437;-66
2023/06/23 06:46:06;;;;;;;16.05;14.45;;;;;;;;;;4960021;28;20424;-65
2023/06/23 06:48:34;;;;;;;14.25;12.85;;;;;;;;;;5001482;28;20439;-65
2023/06/23 06:51:01;;;;;;;20.10;18.60;;;;;;;;;;4984257;28;20475;-65
2023/06/23 06:53:29;;;;;;;17.67;16.15;;;;;;;;;;4986236;28;20424;-65
2023/06/23 06:55:58;;;;;;;14.93;13.63;;;;;;;;;;5015523;28;20462;-65
2023/06/23 06:58:25;;;;;;;15.85;14.25;;;;;;;;;;4986570;28;20430;-65
2023/06/23 07:00:53;;;;;;;14.60;13.20;;;;;;;;;;4968580;28;20922;-66
2023/06/23 07:03:20;;;;;;;15.63;14.23;;;;;;;;;;5011820;28;20436;-63
2023/06/23 07:05:47;;;;;;;13.90;12.63;;;;;;;;;;5007003;28;20432;-71
2023/06/23 07:08:14;;;;;;;15.90;14.32;;;;;;;;;;4969162;28;20931;-68
2023/06/23 07:10:41;;;;;;;15.88;14.40;;;;;;;;;;5019393;28;20444;-68
2023/06/23 07:13:10;;;;;;;16.05;14.55;;;;;;;;;;4955690;28;20440;-69
2023/06/23 07:15:37;;;;;;;14.82;13.52;;;;;;;;;;4971997;28;20939;-67
2023/06/23 07:18:04;;;;;;;15.57;14.18;;;;;;;;;;5011255;28;20873;-67
2023/06/23 07:20:31;;;;;;;14.70;13.40;;;;;;;;;;4960167;28;20420;-66
2023/06/23 07:22:58;;;;;;;14.40;13.02;;;;;;;;;;5003846;28;20431;-68
2023/06/23 07:25:25;;;;;;;11.77;10.67;;;;;;;;;;4996146;28;22009;-65
2023/06/23 07:27:52;;;;;;;14.05;12.85;;;;;;;;;;5009814;28;20422;-68
2023/06/23 07:30:21;;;;;;;13.23;11.98;;;;;;;;;;5038162;28;20448;-66
2023/06/23 07:32:48;;;;;;;11.57;10.48;;;;;;;;;;4991487;28;20434;-64
2023/06/23 07:35:15;;;;;;;13.13;12.02;;;;;;;;;;4965152;28;20965;-68
2023/06/23 07:37:42;;;;;;;12.40;11.30;;;;;;;;;;4991579;28;20435;-68
2023/06/23 07:40:10;;;;;;;13.60;12.40;;;;;;;;;;5011524;28;20431;-68
2023/06/23 07:42:37;;;;;;;11.82;10.93;;;;;;;;;;4960039;28;20443;-64
2023/06/23 07:45:04;;;;;;;12.65;11.55;;;;;;;;;;4962139;28;20453;-64
2023/06/23 07:47:32;;;;;;;10.88;10.05;;;;;;;;;;4981560;28;20430;-64
2023/06/23 07:49:59;;;;;;;12.18;11.07;;;;;;;;;;5000416;28;20808;-64
2023/06/23 07:52:27;;;;;;;13.02;11.88;;;;;;;;;;4974301;28;20434;-64
2023/06/23 07:54:54;;;;;;;14.70;13.50;;;;;;;;;;4999477;23;20435;-74
2023/06/23 07:57:22;;;;;;;13.98;12.68;;;;;;;;;;5043622;28;20440;-77
2023/06/23 07:59:49;;;;;;;15.02;13.63;;;;;;;;;;5042956;28;20563;-76
2023/06/23 08:02:16;;;;;;;14.77;13.38;;;;;;;;;;5047855;28;20432;-76
2023/06/23 08:04:45;;;;;;;15.20;13.80;;;;;;;;;;5042038;28;20432;-76
2023/06/23 08:07:12;;;;;;;14.82;13.63;;;;;;;;;;5043443;28;20454;-75
2023/06/23 08:09:39;;;;;;;14.38;13.27;;;;;;;;;;5051088;28;20433;-76
2023/06/23 08:12:07;;;;;;;10.48;9.63;;;;;;;;;;5044978;28;20429;-76
2023/06/23 08:14:34;;;;;;;13.27;12.07;;;;;;;;;;5049189;28;20911;-73
2023/06/23 08:17:02;;;;;;;13.43;12.18;;;;;;;;;;5043550;28;20444;-75
2023/06/23 08:19:30;;;;;;;13.05;11.95;;;;;;;;;;5050346;28;20428;-76
2023/06/23 08:21:58;;;;;;;12.40;11.40;;;;;;;;;;5048316;28;20935;-77
2023/06/23 08:24:25;;;;;;;12.05;11.15;;;;;;;;;;5050374;28;20908;-76
2023/06/23 08:26:52;;;;;;;9.30;8.45;;;;;;;;;;5042701;28;20452;-77
2023/06/23 08:29:19;;;;;;;11.30;10.20;;;;;;;;;;5050641;28;20417;-76
2023/06/23 08:31:46;;;;;;;11.63;10.52;;;;;;;;;;5047916;28;20487;-77
2023/06/23 08:34:14;;;;;;;7.28;6.65;;;;;;;;;;5048154;28;20433;-76
2023/06/23 08:36:41;;;;;;;9.95;8.95;;;;;;;;;;5052412;28;20421;-77
2023/06/23 08:39:10;;;;;;;7.88;7.18;;;;;;;;;;5050614;28;20409;-75
2023/06/23 08:41:40;;;;;;;9.20;8.40;;;;;;;;;;5050384;28;20426;-75
2023/06/23 08:44:08;;;;;;;9.10;8.20;;;;;;;;;;5045525;28;20436;-76
2023/06/23 08:46:35;;;;;;;10.00;9.00;;;;;;;;;;5048985;28;20433;-75
2023/06/23 08:49:04;;;;;;;9.02;8.20;;;;;;;;;;5044934;28;21004;-77
2023/06/23 08:51:31;;;;;;;8.75;7.90;;;;;;;;;;5043087;28;20421;-76
2023/06/23 08:53:58;;;;;;;9.35;8.55;;;;;;;;;;5050926;28;20918;-76
2023/06/23 08:56:27;;;;;;;8.40;7.70;;;;;;;;;;5051350;28;20538;-76
2023/06/23 08:58:54;;;;;;;8.93;8.23;;;;;;;;;;5049120;28;20425;-76
2023/06/23 09:01:22;;;;;;;10.02;9.13;;;;;;;;;;5048183;28;20446;-77
2023/06/23 09:03:49;;;;;;;8.80;8.00;;;;;;;;;;5047729;28;20432;-76
2023/06/23 09:06:16;;;;;;;7.50;6.90;;;;;;;;;;5047006;28;20432;-77
2023/06/23 09:08:43;;;;;;;8.75;6.22;;;;;;;;;;5048155;28;20433;-76
2023/06/23 09:11:10;;;;;;;7.07;6.47;;;;;;;;;;5052449;28;20440;-77
2023/06/23 09:13:42;;;;;;;8.18;7.40;;;;;;;;;;5060718;28;20417;-76
2023/06/23 09:16:11;;;;;;;6.35;5.75;;;;;;;;;;5060414;28;20437;-74
2023/06/23 09:18:40;;;;;;;6.05;5.32;;;;;;;;;;5059011;28;20428;-76
2023/06/23 09:21:08;;;;;;;6.03;5.57;;;;;;;;;;5055857;28;20422;-76
2023/06/23 09:23:36;;;;;;;6.18;4.78;;;;;;;;;;5047503;28;20538;-75
2023/06/23 09:26:03;;;;;;;5.85;5.25;;;;;;;;;;5054471;28;20413;-75
2023/06/23 09:28:31;;;;;;;6.43;5.93;;;;;;;;;;5051298;28;20425;-74
2023/06/23 09:31:00;;;;;;;6.68;5.97;;;;;;;;;;5049874;28;20461;-74
2023/06/23 09:33:28;;;;;;;6.40;5.80;;;;;;;;;;5049455;28;20433;-76
2023/06/23 09:35:56;;;;;;;7.60;6.90;;;;;;;;;;5050080;28;20413;-75
2023/06/23 09:38:24;;;;;;;6.70;6.00;;;;;;;;;;5053894;28;20422;-75
2023/06/23 09:41:03;;;;;;;6.88;6.30;;;;;;;;;;5049724;28;20423;-74
2023/06/23 09:43:30;;;;;;;5.32;4.93;;;;;;;;;;5042248;28;20437;-76
2023/06/23 09:45:57;;;;;;;6.93;6.32;;;;;;;;;;5040890;28;20429;-76
2023/06/23 09:48:25;;;;;;;5.93;5.20;;;;;;;;;;5043070;28;20429;-75
2023/06/23 09:51:02;;;;;;;6.00;5.40;;;;;;;;;;5041044;28;20435;-77
2023/06/23 09:53:32;;;;;;;5.70;5.10;;;;;;;;;;5045918;28;20983;-76
2023/06/23 09:56:00;;;;;;;5.25;4.43;;;;;;;;;;5049844;28;20842;-74
2023/06/23 09:58:29;;;;;;;5.43;4.80;;;;;;;;;;5046855;28;20434;-77
2023/06/23 10:01:01;;;;;;;4.80;4.30;;;;;;;;;;5046362;28;20436;-77
2023/06/23 10:03:30;;;;;;;5.50;4.90;;;;;;;;;;5046890;28;20429;-76
2023/06/23 10:05:58;;;;;;;4.90;4.40;;;;;;;;;;5048055;28;20569;-75
2023/06/23 10:08:26;;;;;;;4.97;4.57;;;;;;;;;;5042055;28;20441;-76
2023/06/23 10:10:54;;;;;;;5.70;5.20;;;;;;;;;;5048862;28;20456;-75
2023/06/23 10:13:21;;;;;;;6.88;6.18;;;;;;;;;;5045572;28;20432;-76
2023/06/23 10:15:49;;;;;;;5.20;4.80;;;;;;;;;;5046214;28;20433;-75
2023/06/23 10:18:16;;;;;;;5.33;4.83;;;;;;;;;;5045207;28;20444;-74
2023/06/23 10:20:45;;;;;;;5.22;4.82;;;;;;;;;;5045962;28;20433;-73
2023/06/23 10:23:12;;;;;;;4.60;4.20;;;;;;;;;;5043366;28;20433;-75
2023/06/23 10:25:40;;;;;;;4.15;3.85;;;;;;;;;;5039333;28;20461;-75
2023/06/23 10:28:09;;;;;;;5.60;5.10;;;;;;;;;;5047199;28;20930;-74
2023/06/23 10:30:36;;;;;;;4.67;4.17;;;;;;;;;;5045687;28;20429;-77
2023/06/23 10:33:04;;;;;;;4.80;4.40;;;;;;;;;;5039348;28;20504;-75
2023/06/23 10:35:32;;;;;;;5.20;4.80;;;;;;;;;;5048526;28;20911;-74
2023/06/23 10:38:04;;;;;;;5.50;5.00;;;;;;;;;;5048884;28;20946;-74
2023/06/23 10:40:35;;;;;;;5.20;4.70;;;;;;;;;;5044933;28;20918;-74
2023/06/23 10:43:02;;;;;;;5.10;4.20;;;;;;;;;;5046106;28;20525;-73
2023/06/23 10:45:29;;;;;;;6.47;5.97;;;;;;;;;;5042501;28;20435;-74
2023/06/23 10:47:56;;;;;;;5.28;4.88;;;;;;;;;;5048551;28;20421;-69
2023/06/23 10:50:24;;;;;;;5.80;5.40;;;;;;;;;;5047850;28;20409;-76
2023/06/23 10:52:51;;;;;;;4.55;4.05;;;;;;;;;;5047356;28;20436;-73
2023/06/23 10:55:51;;;;;;;5.40;4.93;;;;;;;;;;5045707;28;20494;-74
2023/06/23 10:58:20;;;;;;;6.03;5.60;;;;;;;;;;4984982;28;20445;-76
2023/06/23 11:00:59;;;;;;;5.47;5.07;;;;;;;;;;4985676;28;20516;-75
2023/06/23 11:03:28;;;;;;;6.32;5.82;;;;;;;;;;5018532;28;20429;-75
2023/06/23 11:05:55;;;;;;;6.40;5.90;;;;;;;;;;5049376;28;20423;-73
2023/06/23 11:08:28;;;;;;;5.80;5.20;;;;;;;;;;5049674;28;20489;-75
2023/06/23 11:10:59;;;;;;;5.85;5.35;;;;;;;;;;5048202;28;20420;-75
2023/06/23 11:13:32;;;;;;;4.20;3.90;;;;;;;;;;5044003;28;20439;-76
2023/06/23 11:16:00;;;;;;;4.70;4.30;;;;;;;;;;5039398;28;20565;-76
2023/06/23 11:18:27;;;;;;;4.50;4.10;;;;;;;;;;5045003;28;20438;-76
2023/06/23 11:20:56;;;;;;;4.10;3.70;;;;;;;;;;5046144;28;20567;-74
2023/06/23 11:23:23;;;;;;;4.18;3.88;;;;;;;;;;5047350;28;20961;-74
2023/06/23 11:25:50;;;;;;;4.00;3.70;;;;;;;;;;5048096;28;20429;-73
2023/06/23 11:28:33;;;;;;;4.63;4.22;;;;;;;;;;5046600;28;20534;-74
2023/06/23 11:31:08;;;;;;;3.80;3.40;;;;;;;;;;5043934;28;20538;-75
2023/06/23 11:33:37;;;;;;;4.50;3.83;;;;;;;;;;5050634;28;20494;-75
2023/06/23 11:36:05;;;;;;;4.80;4.40;;;;;;;;;;5054579;28;20445;-75
2023/06/23 11:38:32;;;;;;;4.20;3.80;;;;;;;;;;5051795;28;20804;-75
2023/06/23 11:41:00;;;;;;;3.50;3.20;;;;;;;;;;5051748;28;20412;-74
2023/06/23 11:43:27;;;;;;;3.65;3.15;;;;;;;;;;5051199;28;20988;-75
2023/06/23 11:45:56;;;;;;;3.93;3.60;;;;;;;;;;5039983;28;20434;-75
2023/06/23 11:48:28;;;;;;;3.70;3.40;;;;;;;;;;5047171;28;20429;-73
2023/06/23 11:50:55;;;;;;;3.50;3.20;;;;;;;;;;5051202;28;20420;-74
2023/06/23 11:53:22;;;;;;;3.50;3.00;;;;;;;;;;5052540;28;20424;-76
2023/06/23 11:55:50;;;;;;;3.85;3.50;;;;;;;;;;5051323;28;20428;-72
2023/06/23 11:58:17;;;;;;;3.50;3.20;;;;;;;;;;5051018;28;20518;-75
2023/06/23 12:00:45;;;;;;;3.25;2.95;;;;;;;;;;5052060;28;20455;-74
2023/06/23 12:03:13;;;;;;;3.40;3.10;;;;;;;;;;5054552;28;20934;-74
2023/06/23 12:05:42;;;;;;;2.78;2.58;;;;;;;;;;5050860;28;20425;-74
2023/06/23 12:08:09;;;;;;;3.20;2.90;;;;;;;;;;5051368;28;20436;-74
2023/06/23 12:10:37;;;;;;;2.63;2.42;;;;;;;;;;5050295;28;20441;-73
2023/06/23 12:13:04;;;;;;;3.00;2.80;;;;;;;;;;5043798;28;20433;-75
2023/06/23 12:15:32;;;;;;;3.10;2.88;;;;;;;;;;5050154;28;20429;-76
2023/06/23 12:17:59;;;;;;;2.80;2.60;;;;;;;;;;5051818;28;20432;-71
2023/06/23 12:20:27;;;;;;;2.43;2.30;;;;;;;;;;5054109;28;20431;-72
2023/06/23 12:22:56;;;;;;;3.33;2.30;;;;;;;;;;5042001;28;20416;-75
2023/06/23 12:25:30;;;;;;;2.40;2.20;;;;;;;;;;5051254;28;20417;-74
2023/06/23 12:27:57;;;;;;;2.40;2.20;;;;;;;;;;5050755;28;20428;-74
2023/06/23 12:30:24;;;;;;;2.85;2.35;;;;;;;;;;5050253;28;20950;-76
2023/06/23 12:32:55;;;;;;;2.38;2.17;;;;;;;;;;5051437;28;20424;-74
2023/06/23 12:35:22;;;;;;;2.20;2.00;;;;;;;;;;5049985;28;20982;-75
2023/06/23 12:37:50;;;;;;;2.10;1.80;;;;;;;;;;5049871;28;20425;-74
2023/06/23 12:40:35;;;;;;;1.92;1.73;;;;;;;;;;5050258;28;20428;-75
2023/06/23 12:43:02;;;;;;;2.00;1.80;;;;;;;;;;5051619;28;20421;-75
2023/06/23 12:45:29;;;;;;;1.95;1.85;;;;;;;;;;5051203;28;20417;-73
2023/06/23 12:47:56;;;;;;;2.22;2.03;;;;;;;;;;5052162;28;20414;-74
2023/06/23 12:50:27;;;;;;;1.80;1.70;;;;;;;;;;5051310;28;20428;-74
2023/06/23 12:52:54;;;;;;;1.88;1.77;;;;;;;;;;5051130;28;20483;-75
2023/06/23 12:55:21;;;;;;;1.80;1.70;;;;;;;;;;5050137;28;20842;-72
2023/06/23 12:57:50;;;;;;;2.30;2.10;;;;;;;;;;5042105;28;20510;-75
2023/06/23 13:00:18;;;;;;;2.75;1.70;;;;;;;;;;5050617;28;20527;-75
2023/06/23 13:02:46;;;;;;;1.80;1.70;;;;;;;;;;5064482;28;20475;-73
2023/06/23 13:05:13;;;;;;;2.20;2.00;;;;;;;;;;5049869;28;20463;-75
2023/06/23 13:07:40;;;;;;;1.70;1.60;;;;;;;;;;5048895;28;20467;-76
2023/06/23 13:10:08;;;;;;;2.00;1.90;;;;;;;;;;5049330;28;20455;-76
2023/06/23 13:12:35;;;;;;;2.10;2.00;;;;;;;;;;5041999;28;20437;-78
2023/06/23 13:15:04;;;;;;;1.88;1.77;;;;;;;;;;5049261;28;20441;-75
2023/06/23 13:17:32;;;;;;;2.00;1.80;;;;;;;;;;5048296;28;20433;-74
2023/06/23 13:19:59;;;;;;;1.70;1.50;;;;;;;;;;5045122;28;20927;-74
2023/06/23 13:22:26;;;;;;;2.20;1.85;;;;;;;;;;5049683;28;20444;-74
2023/06/23 13:24:56;;;;;;;1.52;1.40;;;;;;;;;;5045726;28;20433;-72
2023/06/23 13:27:23;;;;;;;2.25;1.50;;;;;;;;;;5044477;28;20437;-73
2023/06/23 13:29:50;;;;;;;1.67;1.58;;;;;;;;;;5045550;28;20436;-73
2023/06/23 13:32:19;;;;;;;2.10;1.90;;;;;;;;;;5052641;28;20433;-74
2023/06/23 13:34:46;;;;;;;1.80;1.70;;;;;;;;;;5048584;28;20919;-75
2023/06/23 13:37:13;;;;;;;1.70;1.60;;;;;;;;;;5049039;28;20508;-75
2023/06/23 13:39:41;;;;;;;1.52;1.40;;;;;;;;;;5045091;28;20790;-75
2023/06/23 13:42:08;;;;;;;1.80;1.70;;;;;;;;;;5047464;28;20800;-75
2023/06/23 13:44:36;;;;;;;1.90;1.60;;;;;;;;;;5050743;28;20515;-74
2023/06/23 13:47:03;;;;;;;1.80;1.70;;;;;;;;;;5048768;28;20883;-74
2023/06/23 13:49:31;;;;;;;1.60;1.50;;;;;;;;;;5046542;28;20508;-75
2023/06/23 13:51:59;;;;;;;1.90;1.70;;;;;;;;;;5048308;28;20437;-75
2023/06/23 13:54:27;;;;;;;1.90;1.60;;;;;;;;;;5051298;28;21616;-74
2023/06/23 13:56:54;;;;;;;2.25;1.73;;;;;;;;;;5047347;28;20433;-75
2023/06/23 13:59:21;;;;;;;2.00;1.90;;;;;;;;;;5057882;28;20455;-74
2023/06/23 14:01:50;;;;;;;1.93;1.70;;;;;;;;;;5071139;28;20434;-75
2023/06/23 14:04:18;;;;;;;1.40;1.30;;;;;;;;;;5066334;28;20433;-75
2023/06/23 14:06:48;;;;;;;1.50;1.40;;;;;;;;;;5054632;28;20429;-75
2023/06/23 14:09:15;;;;;;;1.70;1.60;;;;;;;;;;5043362;28;20429;-73
2023/06/23 14:11:42;;;;;;;1.75;1.65;;;;;;;;;;5044745;28;20480;-77
2023/06/23 14:14:10;;;;;;;1.88;1.67;;;;;;;;;;5043280;28;21046;-76
2023/06/23 14:16:37;;;;;;;1.80;1.70;;;;;;;;;;5045073;28;20425;-74
2023/06/23 14:19:04;;;;;;;1.70;1.60;;;;;;;;;;5046379;28;20827;-75
2023/06/23 14:21:32;;;;;;;1.80;1.70;;;;;;;;;;5043121;28;20447;-74
2023/06/23 14:24:00;;;;;;;1.70;1.60;;;;;;;;;;5045070;28;20457;-76
2023/06/23 14:26:27;;;;;;;1.40;1.30;;;;;;;;;;5043232;28;20436;-74
2023/06/23 14:28:54;;;;;;;1.60;1.50;;;;;;;;;;5044067;28;20440;-75
2023/06/23 14:31:21;;;;;;;1.63;1.52;;;;;;;;;;5046030;28;20446;-75
2023/06/23 14:33:48;;;;;;;1.75;1.65;;;;;;;;;;5045093;28;20797;-74
2023/06/23 14:36:15;;;;;;;2.03;1.83;;;;;;;;;;5044651;28;20474;-74
2023/06/23 14:38:42;;;;;;;1.90;1.80;;;;;;;;;;5040439;28;20444;-74
2023/06/23 14:41:11;;;;;;;2.33;2.22;;;;;;;;;;5045003;28;20546;-74